Time;durP1;ratioP1;P1;durP2;ratioP2;P2;SDS_P1;SDS_P2;PMS_P1;PMS_P2;Temp;Humidity;BMP_temperature;BMP_pressure;BME280_temperature;BME280_humidity;BME280_pressure;Samples;Min_cycle;Max_cycle;Signal;HPM_P1;HPM_P2
2024/04/03 00:02:22;;;;;;;0.30;0.25;;;;;;;;;;5007435;28;58434;-79
2024/04/03 00:04:47;;;;;;;0.30;0.30;;;;;;;;;;5007834;28;60621;-78
2024/04/03 00:07:12;;;;;;;0.83;0.53;;;;;;;;;;5006608;28;58444;-79
2024/04/03 00:09:37;;;;;;;0.85;0.70;;;;;;;;;;5006036;28;58534;-78
2024/04/03 00:12:02;;;;;;;0.30;0.30;;;;;;;;;;5005328;28;58704;-78
2024/04/03 00:14:27;;;;;;;0.30;0.30;;;;;;;;;;5035937;28;58356;-77
2024/04/03 00:16:53;;;;;;;0.50;0.50;;;;;;;;;;5008600;28;60229;-78
2024/04/03 00:19:18;;;;;;;0.50;0.50;;;;;;;;;;5005816;28;60016;-78
2024/04/03 00:21:43;;;;;;;0.50;0.40;;;;;;;;;;5007878;28;58379;-78
2024/04/03 00:24:08;;;;;;;0.53;0.40;;;;;;;;;;5007190;28;59670;-78
2024/04/03 00:26:34;;;;;;;0.30;0.30;;;;;;;;;;5006331;28;58678;-78
2024/04/03 00:28:59;;;;;;;0.35;0.35;;;;;;;;;;5008019;28;58339;-78
2024/04/03 00:31:24;;;;;;;0.50;0.50;;;;;;;;;;5007186;28;58470;-78
2024/04/03 00:33:49;;;;;;;0.70;0.60;;;;;;;;;;5007098;28;58496;-78
2024/04/03 00:36:14;;;;;;;0.30;0.30;;;;;;;;;;5006691;28;58634;-78
2024/04/03 00:38:39;;;;;;;1.05;0.75;;;;;;;;;;5006036;28;58403;-78
2024/04/03 00:41:04;;;;;;;0.50;0.50;;;;;;;;;;5006875;28;58296;-78
2024/04/03 00:43:30;;;;;;;0.45;0.40;;;;;;;;;;5005893;28;58522;-78
2024/04/03 00:45:57;;;;;;;0.97;0.30;;;;;;;;;;5004618;28;58477;-78
2024/04/03 00:48:23;;;;;;;0.40;0.40;;;;;;;;;;5006231;28;58399;-78
2024/04/03 00:50:48;;;;;;;1.10;0.87;;;;;;;;;;5006091;28;60316;-78
2024/04/03 00:53:15;;;;;;;0.70;0.40;;;;;;;;;;5005171;28;59031;-78
2024/04/03 00:55:41;;;;;;;0.55;0.47;;;;;;;;;;5008641;28;59590;-78
2024/04/03 00:58:06;;;;;;;1.75;0.50;;;;;;;;;;5004928;28;58577;-78
2024/04/03 01:00:33;;;;;;;0.40;0.40;;;;;;;;;;5007785;28;58430;-78
2024/04/03 01:02:58;;;;;;;0.98;0.50;;;;;;;;;;5004117;28;59039;-78
2024/04/03 01:05:23;;;;;;;0.70;0.70;;;;;;;;;;5005169;28;57816;-78
2024/04/03 01:07:48;;;;;;;0.60;0.60;;;;;;;;;;5007395;28;58379;-78
2024/04/03 01:10:14;;;;;;;1.30;0.73;;;;;;;;;;5006030;28;58490;-78
2024/04/03 01:12:39;;;;;;;0.93;0.53;;;;;;;;;;4998641;28;59118;-78
2024/04/03 01:15:05;;;;;;;0.43;0.40;;;;;;;;;;4997201;28;58587;-78
2024/04/03 01:17:30;;;;;;;0.50;0.50;;;;;;;;;;4992432;28;59333;-78
2024/04/03 01:19:55;;;;;;;0.52;0.50;;;;;;;;;;4986629;28;58151;-77
2024/04/03 01:22:21;;;;;;;0.57;0.57;;;;;;;;;;5004487;28;58417;-78
2024/04/03 01:24:46;;;;;;;0.52;0.52;;;;;;;;;;4999904;28;59076;-79
2024/04/03 01:27:11;;;;;;;0.50;0.50;;;;;;;;;;4998632;28;58444;-78
2024/04/03 01:29:38;;;;;;;0.30;0.30;;;;;;;;;;5004076;28;59502;-79
2024/04/03 01:32:03;;;;;;;0.40;0.35;;;;;;;;;;4993620;28;59046;-79
2024/04/03 01:34:28;;;;;;;0.40;0.40;;;;;;;;;;4998716;28;58448;-79
2024/04/03 01:36:53;;;;;;;0.32;0.32;;;;;;;;;;4991082;28;58862;-79
2024/04/03 01:39:18;;;;;;;0.37;0.30;;;;;;;;;;4992969;28;58327;-78
2024/04/03 01:41:43;;;;;;;0.47;0.40;;;;;;;;;;4997389;28;59931;-79
2024/04/03 01:44:09;;;;;;;0.27;0.27;;;;;;;;;;4997099;28;58460;-79
2024/04/03 01:46:34;;;;;;;0.30;0.30;;;;;;;;;;5004928;28;58507;-79
2024/04/03 01:48:59;;;;;;;0.40;0.40;;;;;;;;;;5004356;28;58476;-79
2024/04/03 01:51:24;;;;;;;0.50;0.50;;;;;;;;;;5006519;28;58627;-79
2024/04/03 01:53:49;;;;;;;0.50;0.45;;;;;;;;;;4998698;28;59090;-78
2024/04/03 01:56:14;;;;;;;0.50;0.50;;;;;;;;;;4996242;28;58584;-78
2024/04/03 01:58:39;;;;;;;1.00;0.33;;;;;;;;;;5010613;28;58475;-78
2024/04/03 02:01:05;;;;;;;0.28;0.28;;;;;;;;;;4999022;28;59241;-79
2024/04/03 02:03:30;;;;;;;0.87;0.40;;;;;;;;;;4994480;28;58315;-79
2024/04/03 02:05:55;;;;;;;0.37;0.37;;;;;;;;;;4995907;28;58021;-78
2024/04/03 02:08:20;;;;;;;0.57;0.57;;;;;;;;;;4995435;28;59087;-79
2024/04/03 02:10:45;;;;;;;0.77;0.77;;;;;;;;;;4999236;28;58627;-79
2024/04/03 02:13:10;;;;;;;0.60;0.50;;;;;;;;;;4992211;28;58542;-79
2024/04/03 02:15:36;;;;;;;0.50;0.50;;;;;;;;;;5000635;28;59371;-79
2024/04/03 02:18:01;;;;;;;0.30;0.30;;;;;;;;;;5004599;28;58411;-79
2024/04/03 02:20:26;;;;;;;0.47;0.47;;;;;;;;;;4996337;28;59287;-78
2024/04/03 02:22:51;;;;;;;0.70;0.70;;;;;;;;;;5009061;28;58852;-78
2024/04/03 02:25:17;;;;;;;0.40;0.40;;;;;;;;;;4999677;28;57954;-78
2024/04/03 02:27:42;;;;;;;0.43;0.43;;;;;;;;;;5011650;28;61754;-78
2024/04/03 02:30:07;;;;;;;0.50;0.33;;;;;;;;;;4998109;28;58605;-78
2024/04/03 02:32:33;;;;;;;1.80;0.63;;;;;;;;;;4993553;28;58409;-78
2024/04/03 02:34:58;;;;;;;0.77;0.53;;;;;;;;;;4989226;28;57950;-78
2024/04/03 02:37:23;;;;;;;0.52;0.43;;;;;;;;;;5008622;28;58550;-78
2024/04/03 02:39:48;;;;;;;0.60;0.40;;;;;;;;;;5007389;28;59543;-78
2024/04/03 02:42:13;;;;;;;0.57;0.30;;;;;;;;;;5008444;28;58393;-78
2024/04/03 02:44:38;;;;;;;0.40;0.40;;;;;;;;;;5008672;28;58351;-78
2024/04/03 02:47:04;;;;;;;0.45;0.43;;;;;;;;;;5008304;28;59180;-78
2024/04/03 02:49:29;;;;;;;0.60;0.60;;;;;;;;;;5007994;28;59940;-78
2024/04/03 02:51:54;;;;;;;0.63;0.63;;;;;;;;;;5009511;27;58646;-78
2024/04/03 02:54:20;;;;;;;0.63;0.50;;;;;;;;;;5011805;28;58411;-78
2024/04/03 02:56:45;;;;;;;0.60;0.60;;;;;;;;;;5009897;28;58406;-77
2024/04/03 02:59:10;;;;;;;0.60;0.30;;;;;;;;;;5008587;28;58497;-77
2024/04/03 03:01:35;;;;;;;0.50;0.47;;;;;;;;;;5007538;28;58627;-78
2024/04/03 03:04:02;;;;;;;0.60;0.43;;;;;;;;;;5006959;28;58411;-77
2024/04/03 03:06:27;;;;;;;0.82;0.55;;;;;;;;;;5008210;28;59338;-77
2024/04/03 03:08:52;;;;;;;0.50;0.47;;;;;;;;;;5008286;28;58482;-78
2024/04/03 03:11:18;;;;;;;0.57;0.33;;;;;;;;;;5009632;28;58416;-77
2024/04/03 03:13:43;;;;;;;0.68;0.68;;;;;;;;;;5008771;28;58427;-77
2024/04/03 03:16:08;;;;;;;0.60;0.60;;;;;;;;;;5007275;28;58445;-78
2024/04/03 03:18:33;;;;;;;0.73;0.50;;;;;;;;;;5007421;28;58589;-77
2024/04/03 03:20:58;;;;;;;0.60;0.60;;;;;;;;;;5006318;28;60262;-77
2024/04/03 03:23:24;;;;;;;0.43;0.43;;;;;;;;;;5006619;28;58338;-77
2024/04/03 03:25:51;;;;;;;0.60;0.57;;;;;;;;;;5008817;28;59432;-77
2024/04/03 03:28:17;;;;;;;0.60;0.60;;;;;;;;;;5007052;28;59642;-77
2024/04/03 03:30:45;;;;;;;1.55;0.47;;;;;;;;;;5023171;28;58611;-79
2024/04/03 03:33:11;;;;;;;0.85;0.52;;;;;;;;;;5007489;28;58566;-79
2024/04/03 03:35:36;;;;;;;0.57;0.50;;;;;;;;;;5006626;28;59205;-77
2024/04/03 03:38:01;;;;;;;0.47;0.40;;;;;;;;;;5009114;28;58488;-79
2024/04/03 03:40:27;;;;;;;0.30;0.30;;;;;;;;;;5008505;28;58906;-79
2024/04/03 03:42:52;;;;;;;0.45;0.40;;;;;;;;;;5006151;28;59072;-77
2024/04/03 03:45:18;;;;;;;0.30;0.30;;;;;;;;;;5005810;28;58307;-79
2024/04/03 03:47:44;;;;;;;0.57;0.45;;;;;;;;;;5005831;28;59118;-79
2024/04/03 03:52:53;;;;;;;0.47;0.47;;;;;;;;;;5008139;28;61885;-79
2024/04/03 03:55:18;;;;;;;0.83;0.47;;;;;;;;;;5004288;28;58883;-77
2024/04/03 03:57:43;;;;;;;0.32;0.32;;;;;;;;;;5006893;28;58385;-78
2024/04/03 04:00:08;;;;;;;0.40;0.40;;;;;;;;;;5004553;28;58570;-78
2024/04/03 04:02:33;;;;;;;0.50;0.50;;;;;;;;;;5006712;28;58418;-77
2024/04/03 04:04:59;;;;;;;0.63;0.50;;;;;;;;;;5008380;28;58402;-79
2024/04/03 04:07:24;;;;;;;0.33;0.33;;;;;;;;;;5006226;28;59110;-79
2024/04/03 04:09:50;;;;;;;0.93;0.52;;;;;;;;;;5005381;28;58523;-79
2024/04/03 04:12:15;;;;;;;0.22;0.22;;;;;;;;;;5006473;28;59440;-79
2024/04/03 04:14:41;;;;;;;0.35;0.35;;;;;;;;;;5004699;28;57925;-79
2024/04/03 04:17:06;;;;;;;0.68;0.40;;;;;;;;;;5008841;28;58427;-79
2024/04/03 04:19:31;;;;;;;0.33;0.33;;;;;;;;;;5006071;28;58513;-79
2024/04/03 04:21:56;;;;;;;0.90;0.30;;;;;;;;;;5005401;28;58422;-79
2024/04/03 04:24:22;;;;;;;0.93;0.93;;;;;;;;;;5007266;28;58391;-79
2024/04/03 04:26:47;;;;;;;0.35;0.35;;;;;;;;;;5004958;28;58877;-78
2024/04/03 04:29:13;;;;;;;0.40;0.40;;;;;;;;;;5005924;28;58391;-79
2024/04/03 04:31:38;;;;;;;0.30;0.30;;;;;;;;;;5007088;28;59592;-78
2024/04/03 04:34:03;;;;;;;0.38;0.38;;;;;;;;;;5006226;28;58071;-79
2024/04/03 04:36:28;;;;;;;0.50;0.50;;;;;;;;;;5007453;28;58495;-78
2024/04/03 04:38:53;;;;;;;0.47;0.40;;;;;;;;;;5006896;28;60048;-79
2024/04/03 04:41:19;;;;;;;1.60;0.50;;;;;;;;;;5007231;28;58511;-79
2024/04/03 04:43:45;;;;;;;0.30;0.30;;;;;;;;;;4996058;28;58268;-79
2024/04/03 04:46:10;;;;;;;1.30;0.60;;;;;;;;;;4993654;28;58501;-79
2024/04/03 04:48:35;;;;;;;0.73;0.40;;;;;;;;;;5001460;28;58545;-79
2024/04/03 04:51:01;;;;;;;1.10;0.70;;;;;;;;;;5004017;28;60278;-79
2024/04/03 04:53:27;;;;;;;1.75;1.38;;;;;;;;;;4996907;28;59482;-79
2024/04/03 04:55:56;;;;;;;1.52;0.90;;;;;;;;;;5004869;28;58426;-79
2024/04/03 04:58:22;;;;;;;2.13;0.95;;;;;;;;;;5005230;28;59419;-79
2024/04/03 05:00:48;;;;;;;4.93;2.05;;;;;;;;;;4995517;28;59372;-79
2024/04/03 05:03:13;;;;;;;4.25;1.75;;;;;;;;;;4998248;28;58359;-79
2024/04/03 05:05:38;;;;;;;4.37;1.60;;;;;;;;;;5006138;28;59510;-79
2024/04/03 05:08:03;;;;;;;7.70;2.22;;;;;;;;;;5007161;28;58830;-80
2024/04/03 05:10:29;;;;;;;4.72;1.60;;;;;;;;;;5009801;28;59291;-80
2024/04/03 05:12:54;;;;;;;3.45;1.83;;;;;;;;;;5001020;28;58789;-80
2024/04/03 05:15:21;;;;;;;4.07;1.23;;;;;;;;;;4997916;28;58233;-79
2024/04/03 05:17:46;;;;;;;1.23;1.10;;;;;;;;;;4997714;28;59355;-79
2024/04/03 05:20:11;;;;;;;2.83;1.53;;;;;;;;;;4998103;28;58649;-80
2024/04/03 05:22:36;;;;;;;4.45;1.40;;;;;;;;;;5000992;28;58385;-79
2024/04/03 05:25:01;;;;;;;1.98;0.90;;;;;;;;;;4998759;28;58391;-78
2024/04/03 05:27:26;;;;;;;6.27;1.20;;;;;;;;;;5004221;28;59028;-79
2024/04/03 05:29:52;;;;;;;4.47;1.63;;;;;;;;;;5010581;28;58382;-78
2024/04/03 05:32:17;;;;;;;4.53;2.17;;;;;;;;;;5009356;28;58394;-78
2024/04/03 05:34:43;;;;;;;4.53;1.55;;;;;;;;;;5009984;28;58529;-80
2024/04/03 05:37:08;;;;;;;1.30;0.80;;;;;;;;;;5009849;28;59202;-80
2024/04/03 05:39:33;;;;;;;1.33;0.90;;;;;;;;;;5009204;28;58553;-80
2024/04/03 05:41:58;;;;;;;2.43;1.13;;;;;;;;;;5005431;28;58547;-80
2024/04/03 05:44:23;;;;;;;2.13;1.25;;;;;;;;;;4997940;28;59298;-79
2024/04/03 05:46:48;;;;;;;3.37;0.97;;;;;;;;;;4998514;28;58521;-80
2024/04/03 05:49:14;;;;;;;2.63;1.33;;;;;;;;;;4998587;28;58616;-80
2024/04/03 05:51:39;;;;;;;1.02;0.90;;;;;;;;;;5003778;28;59531;-79
2024/04/03 05:54:04;;;;;;;2.90;1.43;;;;;;;;;;5005072;28;58323;-79
2024/04/03 05:56:29;;;;;;;1.83;0.73;;;;;;;;;;4998849;28;58333;-79
2024/04/03 05:58:56;;;;;;;3.07;0.80;;;;;;;;;;4998842;28;58937;-80
2024/04/03 06:01:21;;;;;;;1.60;0.88;;;;;;;;;;5000196;28;57996;-80
2024/04/03 06:03:46;;;;;;;2.88;0.80;;;;;;;;;;4998450;28;58419;-79
2024/04/03 06:06:11;;;;;;;2.70;0.90;;;;;;;;;;5002012;28;58377;-79
2024/04/03 06:08:38;;;;;;;2.05;0.98;;;;;;;;;;5008138;28;58666;-79
2024/04/03 06:11:03;;;;;;;1.75;1.00;;;;;;;;;;5009590;28;59613;-79
2024/04/03 06:13:28;;;;;;;1.20;1.10;;;;;;;;;;5009225;28;58139;-79
2024/04/03 06:15:54;;;;;;;2.30;1.25;;;;;;;;;;5008209;28;60491;-79
2024/04/03 06:18:20;;;;;;;2.47;0.73;;;;;;;;;;5007576;28;59855;-79
2024/04/03 06:20:45;;;;;;;1.55;1.20;;;;;;;;;;5007916;28;58438;-79
2024/04/03 06:23:11;;;;;;;0.95;0.60;;;;;;;;;;5006877;28;59301;-79
2024/04/03 06:25:37;;;;;;;2.40;1.25;;;;;;;;;;5009037;28;58757;-79
2024/04/03 06:28:02;;;;;;;2.05;1.20;;;;;;;;;;5009731;28;58518;-79
2024/04/03 06:30:27;;;;;;;2.15;0.77;;;;;;;;;;5019418;28;59876;-79
2024/04/03 06:32:52;;;;;;;1.40;1.10;;;;;;;;;;5002315;28;60453;-80
2024/04/03 06:35:18;;;;;;;1.50;0.80;;;;;;;;;;5008665;28;60230;-80
2024/04/03 06:37:43;;;;;;;0.93;0.93;;;;;;;;;;5009188;28;58371;-79
2024/04/03 06:40:08;;;;;;;1.27;0.90;;;;;;;;;;5007975;28;58323;-79
2024/04/03 06:42:34;;;;;;;2.05;1.25;;;;;;;;;;5008804;28;59540;-79
2024/04/03 06:44:59;;;;;;;1.07;0.80;;;;;;;;;;5007199;28;59092;-79
2024/04/03 06:47:26;;;;;;;3.00;1.33;;;;;;;;;;5009139;28;58717;-80
2024/04/03 06:49:53;;;;;;;2.90;1.33;;;;;;;;;;5008380;28;59586;-79
2024/04/03 06:52:18;;;;;;;2.03;0.73;;;;;;;;;;5008066;28;59228;-79
2024/04/03 06:54:43;;;;;;;1.43;1.00;;;;;;;;;;5008419;28;58424;-79
2024/04/03 06:57:08;;;;;;;1.00;0.70;;;;;;;;;;5007432;28;58969;-79
2024/04/03 06:59:33;;;;;;;2.93;1.27;;;;;;;;;;5008400;28;58423;-79
2024/04/03 07:01:59;;;;;;;2.00;1.10;;;;;;;;;;5009331;28;60210;-79
2024/04/03 07:04:25;;;;;;;0.90;0.65;;;;;;;;;;5007481;28;59092;-79
2024/04/03 07:06:50;;;;;;;0.93;0.73;;;;;;;;;;5007996;28;58552;-79
2024/04/03 07:09:15;;;;;;;1.50;1.13;;;;;;;;;;5006886;28;59315;-79
2024/04/03 07:11:40;;;;;;;0.50;0.50;;;;;;;;;;5006523;28;60054;-79
2024/04/03 07:14:05;;;;;;;2.50;1.08;;;;;;;;;;5009665;28;58563;-79
2024/04/03 07:16:30;;;;;;;1.60;1.40;;;;;;;;;;5008103;28;59313;-79
2024/04/03 07:18:56;;;;;;;1.75;0.80;;;;;;;;;;5007567;28;58481;-79
2024/04/03 07:21:22;;;;;;;1.25;1.13;;;;;;;;;;5006805;28;60326;-79
2024/04/03 07:23:47;;;;;;;1.48;0.60;;;;;;;;;;5007582;28;58895;-79
2024/04/03 07:26:12;;;;;;;0.80;0.80;;;;;;;;;;5008785;28;58406;-79
2024/04/03 07:28:37;;;;;;;1.10;1.00;;;;;;;;;;5008808;28;58671;-79
2024/04/03 07:31:03;;;;;;;2.37;0.73;;;;;;;;;;5006322;28;59151;-79
2024/04/03 07:33:28;;;;;;;1.57;0.90;;;;;;;;;;5007949;28;58155;-78
2024/04/03 07:35:53;;;;;;;1.30;0.80;;;;;;;;;;5009606;28;58352;-79
2024/04/03 07:38:20;;;;;;;1.27;0.97;;;;;;;;;;5008157;28;58483;-80
2024/04/03 07:40:47;;;;;;;1.05;0.98;;;;;;;;;;5007198;28;59337;-80
2024/04/03 07:43:13;;;;;;;1.45;1.35;;;;;;;;;;5005478;28;60606;-79
2024/04/03 07:45:38;;;;;;;0.98;0.80;;;;;;;;;;5007155;28;58398;-79
2024/04/03 07:48:03;;;;;;;1.73;1.07;;;;;;;;;;5004987;28;59402;-79
2024/04/03 07:50:28;;;;;;;1.07;0.97;;;;;;;;;;5007570;28;58750;-79
2024/04/03 07:52:54;;;;;;;1.07;0.70;;;;;;;;;;5007148;28;58672;-79
2024/04/03 07:55:19;;;;;;;0.93;0.80;;;;;;;;;;5006969;28;59233;-79
2024/04/03 07:57:44;;;;;;;0.63;0.60;;;;;;;;;;5006177;28;58690;-79
2024/04/03 08:00:10;;;;;;;1.98;1.77;;;;;;;;;;5007173;28;58553;-79
2024/04/03 08:02:37;;;;;;;1.40;1.30;;;;;;;;;;5006332;28;59741;-79
2024/04/03 08:05:02;;;;;;;0.80;0.80;;;;;;;;;;5007128;28;57686;-79
2024/04/03 08:07:28;;;;;;;1.77;0.70;;;;;;;;;;5007187;28;59503;-79
2024/04/03 08:09:53;;;;;;;1.40;0.90;;;;;;;;;;5005538;28;58935;-79
2024/04/03 08:12:18;;;;;;;0.60;0.50;;;;;;;;;;5008322;28;58359;-79
2024/04/03 08:14:43;;;;;;;0.57;0.57;;;;;;;;;;5008305;28;59096;-79
2024/04/03 08:17:08;;;;;;;1.10;0.77;;;;;;;;;;5006834;28;59864;-80
2024/04/03 08:19:34;;;;;;;1.00;0.70;;;;;;;;;;5007731;28;58593;-79
2024/04/03 08:21:59;;;;;;;0.80;0.80;;;;;;;;;;4999521;28;58501;-79
2024/04/03 08:24:26;;;;;;;0.70;0.63;;;;;;;;;;5001737;28;58418;-79
2024/04/03 08:26:51;;;;;;;1.02;0.93;;;;;;;;;;5005333;28;59532;-79
2024/04/03 08:29:17;;;;;;;1.30;1.20;;;;;;;;;;5005955;28;58948;-79
2024/04/03 08:31:42;;;;;;;1.55;1.00;;;;;;;;;;5008413;28;58403;-79
2024/04/03 08:34:08;;;;;;;1.07;0.67;;;;;;;;;;5006337;28;59466;-79
2024/04/03 08:36:33;;;;;;;1.17;1.07;;;;;;;;;;5006025;28;58859;-79
2024/04/03 08:38:59;;;;;;;2.55;0.88;;;;;;;;;;5005768;28;58213;-79
2024/04/03 08:41:24;;;;;;;1.02;0.93;;;;;;;;;;5007162;28;59822;-79
2024/04/03 08:43:51;;;;;;;1.57;1.00;;;;;;;;;;5006172;28;58582;-79
2024/04/03 08:46:17;;;;;;;1.48;1.40;;;;;;;;;;5005085;28;59396;-79
2024/04/03 08:48:43;;;;;;;1.10;0.98;;;;;;;;;;5004223;28;59110;-79
2024/04/03 08:51:08;;;;;;;1.83;1.13;;;;;;;;;;5007342;28;58365;-80
2024/04/03 08:53:34;;;;;;;1.02;0.95;;;;;;;;;;5006044;28;60433;-79
2024/04/03 08:55:59;;;;;;;1.13;1.07;;;;;;;;;;5005941;28;58895;-79
2024/04/03 08:58:25;;;;;;;1.02;1.02;;;;;;;;;;5007615;28;57926;-79
2024/04/03 09:00:51;;;;;;;2.17;0.93;;;;;;;;;;5006403;28;59421;-79
2024/04/03 09:03:16;;;;;;;1.88;1.23;;;;;;;;;;4999014;28;58538;-79
2024/04/03 09:05:42;;;;;;;0.70;0.70;;;;;;;;;;5008708;28;58727;-79
2024/04/03 09:08:08;;;;;;;2.63;1.17;;;;;;;;;;4994257;28;59058;-80
2024/04/03 09:13:22;;;;;;;1.00;0.90;;;;;;;;;;5006717;28;58613;-79
2024/04/03 09:15:51;;;;;;;2.15;1.13;;;;;;;;;;5000388;28;58248;-79
2024/04/03 09:18:18;;;;;;;1.00;0.90;;;;;;;;;;5001011;28;58359;-79
2024/04/03 09:20:43;;;;;;;1.00;0.90;;;;;;;;;;5003899;28;59034;-79
2024/04/03 09:23:09;;;;;;;0.93;0.87;;;;;;;;;;4994705;28;58531;-79
2024/04/03 09:25:35;;;;;;;1.10;1.10;;;;;;;;;;4995693;28;58414;-79
2024/04/03 09:28:04;;;;;;;1.65;1.20;;;;;;;;;;5004421;28;58781;-79
2024/04/03 09:30:30;;;;;;;1.35;1.00;;;;;;;;;;5004051;28;58456;-79
2024/04/03 09:32:58;;;;;;;1.13;1.02;;;;;;;;;;4998127;28;59661;-80
2024/04/03 09:35:25;;;;;;;1.25;1.15;;;;;;;;;;5005581;28;58760;-79
2024/04/03 09:37:50;;;;;;;1.35;1.20;;;;;;;;;;4998826;28;58421;-79
2024/04/03 09:40:16;;;;;;;1.30;1.20;;;;;;;;;;4996742;28;59488;-80
2024/04/03 09:42:43;;;;;;;1.95;0.90;;;;;;;;;;5002526;28;58870;-79
2024/04/03 09:45:08;;;;;;;1.50;1.40;;;;;;;;;;4999398;28;58370;-79
2024/04/03 09:47:34;;;;;;;3.90;1.90;;;;;;;;;;4995202;28;59449;-80
2024/04/03 09:50:00;;;;;;;1.73;1.63;;;;;;;;;;4993823;28;58007;-79
2024/04/03 09:52:26;;;;;;;1.65;1.55;;;;;;;;;;4993759;28;59415;-79
2024/04/03 09:54:52;;;;;;;1.60;1.48;;;;;;;;;;4994164;28;58657;-79
2024/04/03 09:57:17;;;;;;;1.10;1.10;;;;;;;;;;4999340;28;58562;-79
2024/04/03 09:59:43;;;;;;;1.47;1.40;;;;;;;;;;4997545;28;58777;-79
2024/04/03 10:02:14;;;;;;;1.20;1.10;;;;;;;;;;4998231;28;58847;-79
2024/04/03 10:04:39;;;;;;;1.38;1.27;;;;;;;;;;5009662;28;58494;-80
2024/04/03 10:07:15;;;;;;;1.20;1.10;;;;;;;;;;5008801;28;59500;-79
2024/04/03 10:09:40;;;;;;;1.48;1.38;;;;;;;;;;5009791;28;59107;-79
2024/04/03 10:12:07;;;;;;;1.30;1.20;;;;;;;;;;5008855;28;58457;-79
2024/04/03 10:14:35;;;;;;;1.45;1.35;;;;;;;;;;5007897;28;59015;-78
2024/04/03 10:17:00;;;;;;;1.40;1.30;;;;;;;;;;5008369;28;57794;-78
2024/04/03 10:19:31;;;;;;;1.67;1.53;;;;;;;;;;5008024;28;58425;-78
2024/04/03 10:22:02;;;;;;;1.33;1.23;;;;;;;;;;5007831;28;58406;-78
2024/04/03 10:24:30;;;;;;;1.25;1.17;;;;;;;;;;5008094;28;58433;-78
2024/04/03 10:26:56;;;;;;;;;;;;;;;;;;5009688;28;59441;-80
2024/04/03 10:29:21;;;;;;;1.40;1.30;;;;;;;;;;5008457;28;58430;-79
2024/04/03 10:31:46;;;;;;;1.40;1.30;;;;;;;;;;5011042;28;58450;-79
2024/04/03 10:34:11;;;;;;;1.45;1.35;;;;;;;;;;5007257;27;58671;-79
2024/04/03 10:36:37;;;;;;;0.95;0.95;;;;;;;;;;5008656;28;57886;-79
2024/04/03 10:39:02;;;;;;;1.53;1.40;;;;;;;;;;5009254;28;58332;-80
2024/04/03 10:41:27;;;;;;;1.07;1.03;;;;;;;;;;5007053;28;58297;-80
2024/04/03 10:43:53;;;;;;;1.35;1.25;;;;;;;;;;5007330;28;58603;-80
2024/04/03 10:46:24;;;;;;;0.90;0.90;;;;;;;;;;5007507;28;58502;-79
2024/04/03 10:48:49;;;;;;;0.88;0.88;;;;;;;;;;5008764;28;58976;-79
2024/04/03 10:51:15;;;;;;;1.47;1.03;;;;;;;;;;5010204;28;58479;-79
2024/04/03 10:53:40;;;;;;;1.40;1.07;;;;;;;;;;5007948;28;58998;-79
2024/04/03 10:56:05;;;;;;;0.80;0.80;;;;;;;;;;5008901;28;58692;-80
2024/04/03 10:58:30;;;;;;;0.85;0.85;;;;;;;;;;5009314;28;60127;-79
2024/04/03 11:00:55;;;;;;;1.13;0.97;;;;;;;;;;5006029;28;58578;-79
2024/04/03 11:03:22;;;;;;;0.80;0.80;;;;;;;;;;5007521;28;58475;-79
2024/04/03 11:05:48;;;;;;;0.80;0.80;;;;;;;;;;5006776;28;58663;-79
2024/04/03 11:08:15;;;;;;;0.85;0.85;;;;;;;;;;5006183;28;58629;-80
2024/04/03 11:10:40;;;;;;;0.90;0.90;;;;;;;;;;5007846;28;58494;-79
2024/04/03 11:13:06;;;;;;;0.97;0.97;;;;;;;;;;5007712;28;59390;-80
2024/04/03 11:15:32;;;;;;;0.63;0.63;;;;;;;;;;5006016;28;58421;-79
2024/04/03 11:17:59;;;;;;;0.73;0.73;;;;;;;;;;5007662;28;61214;-79
2024/04/03 11:20:25;;;;;;;0.82;0.82;;;;;;;;;;5008163;28;59343;-79
2024/04/03 11:22:52;;;;;;;1.13;0.75;;;;;;;;;;5008082;28;57780;-79
2024/04/03 11:25:18;;;;;;;0.80;0.80;;;;;;;;;;5008046;28;60380;-80
2024/04/03 11:27:43;;;;;;;1.13;1.00;;;;;;;;;;5007017;28;58868;-79
2024/04/03 11:30:08;;;;;;;1.00;1.00;;;;;;;;;;5005842;28;58372;-80
2024/04/03 11:32:34;;;;;;;1.60;0.83;;;;;;;;;;5007267;28;60108;-79
2024/04/03 11:34:59;;;;;;;0.70;0.70;;;;;;;;;;5009102;28;58823;-79
2024/04/03 11:37:24;;;;;;;0.67;0.67;;;;;;;;;;5007095;28;59772;-80
2024/04/03 11:39:49;;;;;;;0.70;0.70;;;;;;;;;;5005749;28;58316;-79
2024/04/03 11:42:15;;;;;;;0.70;0.70;;;;;;;;;;5003567;28;58375;-79
2024/04/03 11:44:40;;;;;;;0.65;0.65;;;;;;;;;;5007395;28;59490;-79
2024/04/03 11:47:05;;;;;;;0.90;0.70;;;;;;;;;;5007662;28;58890;-79
2024/04/03 11:49:31;;;;;;;0.40;0.40;;;;;;;;;;5007614;28;58584;-79
2024/04/03 11:51:56;;;;;;;0.68;0.68;;;;;;;;;;5006515;28;60474;-79
2024/04/03 11:54:21;;;;;;;0.70;0.70;;;;;;;;;;5006652;28;58717;-79
2024/04/03 11:56:46;;;;;;;0.70;0.70;;;;;;;;;;5006789;28;58240;-79
2024/04/03 11:59:11;;;;;;;0.50;0.50;;;;;;;;;;5005575;28;59084;-79
2024/04/03 12:01:36;;;;;;;0.80;0.80;;;;;;;;;;5006529;28;58485;-79
2024/04/03 12:04:02;;;;;;;1.00;1.00;;;;;;;;;;5007346;28;58572;-79
2024/04/03 12:06:28;;;;;;;0.80;0.80;;;;;;;;;;5006780;28;58582;-79
2024/04/03 12:08:53;;;;;;;0.57;0.57;;;;;;;;;;5006196;28;58408;-79
2024/04/03 12:11:18;;;;;;;1.00;0.90;;;;;;;;;;5007456;28;59429;-79
2024/04/03 12:13:43;;;;;;;0.60;0.60;;;;;;;;;;5014136;28;58782;-78
2024/04/03 12:16:13;;;;;;;1.83;0.90;;;;;;;;;;5003634;28;58310;-79
2024/04/03 12:18:48;;;;;;;0.60;0.60;;;;;;;;;;5006424;28;59615;-79
2024/04/03 12:21:14;;;;;;;0.63;0.63;;;;;;;;;;5006499;28;58548;-79
2024/04/03 12:23:41;;;;;;;0.77;0.77;;;;;;;;;;5005697;28;59785;-79
2024/04/03 12:26:07;;;;;;;0.57;0.57;;;;;;;;;;5006428;28;58438;-79
2024/04/03 12:28:32;;;;;;;0.80;0.80;;;;;;;;;;5006847;28;58595;-76
2024/04/03 12:30:57;;;;;;;0.90;0.70;;;;;;;;;;5006569;28;60202;-76
2024/04/03 12:33:22;;;;;;;0.67;0.67;;;;;;;;;;5005030;28;58841;-79
2024/04/03 12:35:47;;;;;;;1.90;1.23;;;;;;;;;;5006629;28;58506;-74
2024/04/03 12:38:13;;;;;;;2.85;0.85;;;;;;;;;;5005910;28;59455;-80
2024/04/03 12:40:41;;;;;;;1.03;0.60;;;;;;;;;;5006858;28;58401;-80
2024/04/03 12:43:06;;;;;;;4.18;0.65;;;;;;;;;;4999266;28;59150;-81
2024/04/03 12:45:34;;;;;;;0.63;0.60;;;;;;;;;;4994448;28;58765;-80
2024/04/03 12:47:59;;;;;;;;;;;;;;;;;;4994438;28;58305;-80
2024/04/03 12:50:26;;;;;;;1.57;0.90;;;;;;;;;;4992189;28;59650;-77
2024/04/03 12:52:52;;;;;;;0.50;0.50;;;;;;;;;;4994627;28;59025;-76
2024/04/03 12:55:17;;;;;;;0.60;0.60;;;;;;;;;;4993274;28;58370;-76
2024/04/03 12:57:42;;;;;;;1.08;0.90;;;;;;;;;;4991241;28;59512;-76
2024/04/03 13:00:08;;;;;;;0.70;0.70;;;;;;;;;;4994798;28;58772;-80
2024/04/03 13:02:33;;;;;;;0.50;0.50;;;;;;;;;;4995850;28;58283;-80
2024/04/03 13:04:58;;;;;;;1.77;0.83;;;;;;;;;;5007068;28;59123;-77
2024/04/03 13:07:23;;;;;;;3.93;1.80;;;;;;;;;;5004167;28;58462;-79
2024/04/03 13:09:48;;;;;;;5.82;1.60;;;;;;;;;;5005604;28;58636;-76
2024/04/03 13:12:14;;;;;;;3.23;1.07;;;;;;;;;;5005279;28;58598;-76
2024/04/03 13:14:39;;;;;;;3.72;0.70;;;;;;;;;;5005416;28;58663;-78
2024/04/03 13:17:04;;;;;;;0.73;0.70;;;;;;;;;;5007113;28;58516;-76
2024/04/03 13:19:29;;;;;;;3.40;1.00;;;;;;;;;;5005695;28;59003;-77
2024/04/03 13:21:54;;;;;;;2.20;0.73;;;;;;;;;;5005901;28;58414;-76
2024/04/03 13:24:20;;;;;;;1.00;0.80;;;;;;;;;;5003913;28;58951;-77
2024/04/03 13:26:45;;;;;;;1.40;0.90;;;;;;;;;;5006140;28;58307;-79
2024/04/03 13:29:10;;;;;;;1.83;1.20;;;;;;;;;;5006025;28;59600;-75
2024/04/03 13:31:35;;;;;;;3.47;0.57;;;;;;;;;;5009055;28;58740;-74
2024/04/03 13:34:01;;;;;;;1.20;1.10;;;;;;;;;;5008846;28;58577;-74
2024/04/03 13:36:27;;;;;;;2.20;1.65;;;;;;;;;;5007864;28;59867;-77
2024/04/03 13:38:52;;;;;;;1.50;0.70;;;;;;;;;;5007885;28;58805;-78
2024/04/03 13:41:18;;;;;;;4.20;1.43;;;;;;;;;;5009358;28;58483;-78
2024/04/03 13:43:43;;;;;;;3.70;0.77;;;;;;;;;;5008474;28;60546;-76
2024/04/03 13:46:09;;;;;;;4.33;1.33;;;;;;;;;;5007906;28;58388;-79
2024/04/03 13:48:34;;;;;;;2.05;1.08;;;;;;;;;;5008576;28;59780;-78
2024/04/03 13:50:59;;;;;;;5.10;1.30;;;;;;;;;;5006125;28;58774;-75
2024/04/03 13:53:25;;;;;;;0.97;0.80;;;;;;;;;;5007993;28;58351;-75
2024/04/03 13:56:00;;;;;;;1.65;0.65;;;;;;;;;;5010844;28;59269;-76
2024/04/03 13:58:26;;;;;;;1.95;0.88;;;;;;;;;;5008982;28;59645;-77
2024/04/03 14:00:55;;;;;;;0.60;0.60;;;;;;;;;;5004676;28;58451;-78
2024/04/03 14:03:20;;;;;;;1.75;1.40;;;;;;;;;;5006600;28;60242;-76
2024/04/03 14:05:46;;;;;;;2.47;1.40;;;;;;;;;;5007756;28;58865;-76
2024/04/03 14:08:11;;;;;;;2.95;0.80;;;;;;;;;;5007500;28;59559;-79
2024/04/03 14:10:38;;;;;;;2.97;0.73;;;;;;;;;;5008243;28;59506;-78
2024/04/03 14:13:03;;;;;;;4.50;0.80;;;;;;;;;;5007563;28;58625;-79
2024/04/03 14:15:28;;;;;;;6.77;1.10;;;;;;;;;;5006833;28;59549;-79
2024/04/03 14:17:53;;;;;;;4.97;0.77;;;;;;;;;;5003628;28;60439;-78
2024/04/03 14:20:19;;;;;;;0.93;0.67;;;;;;;;;;4996436;28;58653;-78
2024/04/03 14:22:45;;;;;;;1.70;1.07;;;;;;;;;;4997462;28;58678;-79
2024/04/03 14:25:10;;;;;;;5.07;0.80;;;;;;;;;;4993059;28;59645;-78
2024/04/03 14:27:36;;;;;;;1.77;1.37;;;;;;;;;;5005427;28;58395;-79
2024/04/03 14:30:01;;;;;;;4.03;1.00;;;;;;;;;;5007334;28;58386;-79
2024/04/03 14:32:26;;;;;;;0.95;0.80;;;;;;;;;;5007356;28;60609;-80
2024/04/03 14:34:51;;;;;;;2.60;0.70;;;;;;;;;;5008498;28;60164;-80
2024/04/03 14:37:17;;;;;;;4.47;1.10;;;;;;;;;;5007050;28;59685;-79
2024/04/03 14:39:42;;;;;;;5.45;0.80;;;;;;;;;;5007343;28;58376;-79